Time;durP1;ratioP1;P1;durP2;ratioP2;P2;SDS_P1;SDS_P2;PMS_P1;PMS_P2;Temp;Humidity;BMP_temperature;BMP_pressure;BME280_temperature;BME280_humidity;BME280_pressure;Samples;Min_cycle;Max_cycle;Signal;HPM_P1;HPM_P2
2023/10/04 04:00:30;;;;;;;0.70;0.20;;;12.40;99.90;;;;;;5914647;23;20462;-74
2023/10/04 04:02:59;;;;;;;0.60;0.10;;;12.50;99.90;;;;;;4992447;28;20434;-74
2023/10/04 04:05:29;;;;;;;0.60;0.10;;;12.30;99.90;;;;;;4991936;28;20851;-73
2023/10/04 04:07:58;;;;;;;0.60;0.10;;;12.30;99.90;;;;;;4992189;28;20493;-74
2023/10/04 04:10:26;;;;;;;0.60;0.10;;;12.60;99.90;;;;;;4989462;28;20484;-73
2023/10/04 04:12:55;;;;;;;0.60;0.10;;;12.60;99.90;;;;;;4972666;28;20489;-74
2023/10/04 04:15:23;;;;;;;0.60;0.10;;;12.70;99.90;;;;;;5003511;23;20605;-73
2023/10/04 04:17:53;;;;;;;0.60;0.10;;;12.70;99.90;;;;;;4983088;28;20451;-75
2023/10/04 04:20:23;;;;;;;0.60;0.10;;;13.50;99.90;;;;;;4983473;28;20460;-72
2023/10/04 04:22:53;;;;;;;0.60;0.30;;;12.60;99.90;;;;;;4987750;28;20459;-73
2023/10/04 04:25:21;;;;;;;2.00;1.33;;;12.70;99.90;;;;;;4974379;28;20468;-73
2023/10/04 04:27:50;;;;;;;0.60;0.10;;;12.60;99.90;;;;;;4971771;28;20499;-72
2023/10/04 04:30:21;;;;;;;0.60;0.10;;;12.70;99.90;;;;;;4962797;28;20542;-73
2023/10/04 04:32:52;;;;;;;0.60;0.10;;;12.80;99.90;;;;;;4969194;28;20444;-73
2023/10/04 04:35:35;;;;;;;0.83;0.30;;;12.90;99.90;;;;;;4979554;28;20536;-73
2023/10/04 04:38:12;;;;;;;0.60;0.10;;;12.90;99.90;;;;;;4969639;28;20467;-74
2023/10/04 04:40:44;;;;;;;0.60;0.10;;;12.90;99.90;;;;;;4975542;28;20452;-72
2023/10/04 04:43:36;;;;;;;0.60;0.10;;;12.80;99.90;;;;;;4972777;28;20503;-73
2023/10/04 04:46:09;;;;;;;0.60;0.20;;;12.60;99.90;;;;;;4965741;28;21008;-72
2023/10/04 04:48:37;;;;;;;0.60;0.30;;;12.70;99.90;;;;;;4972536;28;20498;-73
2023/10/04 04:51:12;;;;;;;0.60;0.10;;;12.70;99.90;;;;;;4973234;28;20567;-72
2023/10/04 04:53:41;;;;;;;1.10;0.33;;;;;;;;;;4974652;28;20468;-71
2023/10/04 04:56:14;;;;;;;0.60;0.10;;;12.80;99.90;;;;;;4985763;28;20536;-72
2023/10/04 04:58:43;;;;;;;0.60;0.10;;;12.80;99.90;;;;;;4971365;28;20944;-72
2023/10/04 05:01:13;;;;;;;0.60;0.10;;;12.70;99.90;;;;;;4971541;28;21006;-72
2023/10/04 05:03:45;;;;;;;0.70;0.43;;;12.70;99.90;;;;;;4971582;28;20926;-73
2023/10/04 05:06:21;;;;;;;0.60;0.10;;;12.70;99.90;;;;;;4971548;28;20985;-74
2023/10/04 05:08:50;;;;;;;0.60;0.10;;;12.70;99.90;;;;;;4971231;28;21007;-73
2023/10/04 05:11:18;;;;;;;0.60;0.20;;;;;;;;;;4970851;28;20465;-73
2023/10/04 05:13:47;;;;;;;0.60;0.20;;;12.60;99.90;;;;;;4969899;28;20456;-73
2023/10/04 05:16:15;;;;;;;0.60;0.10;;;12.50;99.90;;;;;;4971114;28;20477;-74
2023/10/04 05:18:44;;;;;;;0.60;0.10;;;12.60;99.90;;;;;;4971756;28;20846;-74
2023/10/04 05:21:13;;;;;;;0.60;0.10;;;;;;;;;;4970881;28;20464;-73
2023/10/04 05:23:42;;;;;;;0.70;0.43;;;12.70;99.90;;;;;;4970822;28;20483;-72
2023/10/04 05:26:12;;;;;;;0.60;0.10;;;12.70;99.90;;;;;;4976874;28;20479;-72
2023/10/04 05:28:41;;;;;;;0.60;0.10;;;12.70;99.90;;;;;;4980475;28;20488;-73
2023/10/04 05:31:09;;;;;;;1.00;0.40;;;12.70;99.90;;;;;;4974407;28;20500;-72
2023/10/04 05:33:37;;;;;;;0.97;0.60;;;12.80;99.90;;;;;;4974127;28;20455;-73
2023/10/04 05:36:07;;;;;;;0.60;0.10;;;12.80;99.90;;;;;;4974041;28;20559;-72
2023/10/04 05:38:35;;;;;;;0.60;0.10;;;12.70;99.90;;;;;;4974393;28;20947;-73
2023/10/04 05:41:05;;;;;;;1.23;1.13;;;;;;;;;;4974283;28;21031;-73
2023/10/04 05:43:34;;;;;;;1.67;0.53;;;12.60;99.90;;;;;;4971633;28;20487;-73
2023/10/04 05:46:06;;;;;;;1.73;0.57;;;12.50;99.90;;;;;;4973906;28;21054;-73
2023/10/04 05:48:35;;;;;;;0.60;0.10;;;12.50;99.90;;;;;;4974459;28;20488;-73
2023/10/04 05:51:06;;;;;;;0.70;0.40;;;12.40;99.90;;;;;;4974367;28;20504;-73
2023/10/04 05:53:37;;;;;;;9.07;8.53;;;12.50;99.90;;;;;;4974033;28;20966;-73
2023/10/04 05:56:09;;;;;;;0.60;0.10;;;12.40;99.90;;;;;;4973753;28;20468;-72
2023/10/04 05:58:37;;;;;;;0.70;0.30;;;12.50;99.90;;;;;;4974206;28;20459;-73
2023/10/04 06:01:06;;;;;;;0.70;0.40;;;12.50;99.90;;;;;;4979084;28;20487;-73
2023/10/04 06:03:35;;;;;;;0.60;0.20;;;12.50;99.90;;;;;;4976864;28;20445;-74
2023/10/04 06:06:03;;;;;;;0.60;0.40;;;12.60;99.90;;;;;;4973469;28;20473;-72
2023/10/04 06:08:33;;;;;;;0.60;0.20;;;12.60;99.90;;;;;;4973885;28;20515;-73
2023/10/04 06:11:01;;;;;;;0.57;0.10;;;12.50;99.90;;;;;;4974237;28;20464;-71
2023/10/04 06:13:30;;;;;;;0.60;0.10;;;12.50;99.90;;;;;;4973910;28;20448;-72
2023/10/04 06:15:59;;;;;;;1.70;1.60;;;12.60;99.90;;;;;;4962659;28;20488;-71
2023/10/04 06:18:28;;;;;;;0.90;0.87;;;12.60;99.90;;;;;;4973450;28;20471;-72
2023/10/04 06:20:58;;;;;;;1.67;0.53;;;12.50;99.90;;;;;;4970557;28;20539;-71
2023/10/04 06:23:29;;;;;;;0.60;0.23;;;12.50;99.90;;;;;;4971968;28;20484;-72
2023/10/04 06:25:57;;;;;;;3.23;0.93;;;12.50;99.90;;;;;;4965328;28;20846;-71
2023/10/04 06:28:25;;;;;;;0.80;0.47;;;12.60;99.90;;;;;;4973723;28;20483;-72
2023/10/04 06:30:54;;;;;;;0.60;0.20;;;12.60;99.90;;;;;;4973362;28;20447;-74
2023/10/04 06:33:22;;;;;;;3.60;0.83;;;12.50;99.90;;;;;;4971563;28;20451;-70
2023/10/04 06:35:50;;;;;;;0.60;0.10;;;12.60;99.90;;;;;;4980764;28;20554;-72
2023/10/04 06:38:18;;;;;;;0.60;0.10;;;12.50;99.90;;;;;;4973072;28;20544;-73
2023/10/04 06:40:46;;;;;;;0.60;0.20;;;12.50;99.90;;;;;;4982936;28;20618;-71
2023/10/04 06:43:15;;;;;;;0.60;0.10;;;12.60;99.90;;;;;;4971204;28;20787;-72
2023/10/04 06:45:43;;;;;;;1.07;0.50;;;12.70;99.90;;;;;;4973178;28;20539;-71
2023/10/04 06:48:12;;;;;;;0.60;0.20;;;12.80;99.90;;;;;;4972616;28;20570;-72
2023/10/04 06:50:40;;;;;;;2.00;0.33;;;12.80;99.90;;;;;;4969439;28;20979;-72
2023/10/04 06:53:09;;;;;;;0.60;0.20;;;12.70;99.90;;;;;;4962828;28;21028;-71
2023/10/04 06:55:38;;;;;;;0.60;0.10;;;12.70;99.90;;;;;;4978642;28;20997;-72
2023/10/04 06:58:10;;;;;;;1.23;0.40;;;12.70;99.90;;;;;;4978943;28;20469;-73
2023/10/04 07:00:40;;;;;;;1.00;0.53;;;12.70;99.90;;;;;;4977434;28;20467;-73
2023/10/04 07:03:09;;;;;;;0.60;0.10;;;12.50;99.90;;;;;;4974013;28;20460;-72
2023/10/04 07:05:40;;;;;;;0.60;0.10;;;12.60;99.90;;;;;;4974323;28;20570;-73
2023/10/04 07:08:12;;;;;;;0.90;0.60;;;12.70;99.90;;;;;;4973230;28;20488;-72
2023/10/04 07:10:41;;;;;;;0.60;0.10;;;12.80;99.90;;;;;;4974426;28;20453;-72
2023/10/04 07:13:10;;;;;;;0.60;0.10;;;;;;;;;;4973774;28;20456;-71
2023/10/04 07:15:39;;;;;;;1.20;1.03;;;12.90;99.90;;;;;;4972539;28;20579;-73
2023/10/04 07:18:10;;;;;;;0.60;0.10;;;12.70;99.90;;;;;;4972273;28;20447;-71
2023/10/04 07:20:40;;;;;;;0.60;0.20;;;12.70;99.90;;;;;;4984510;28;20972;-72
2023/10/04 07:23:10;;;;;;;1.03;0.23;;;12.80;99.90;;;;;;4975352;28;20878;-73
2023/10/04 07:25:41;;;;;;;3.70;0.80;;;12.80;99.90;;;;;;4974560;28;20491;-72
2023/10/04 07:28:11;;;;;;;0.80;0.30;;;12.80;99.90;;;;;;4973093;28;20452;-72
2023/10/04 07:30:40;;;;;;;2.87;1.50;;;12.80;99.90;;;;;;4974655;28;20480;-71
2023/10/04 07:33:08;;;;;;;0.60;0.10;;;12.80;99.90;;;;;;4972380;28;20462;-72
2023/10/04 07:35:38;;;;;;;0.60;0.10;;;12.90;99.90;;;;;;4973527;28;20458;-73
2023/10/04 07:38:07;;;;;;;8.23;0.53;;;;;;;;;;4972891;28;20560;-73
2023/10/04 07:40:39;;;;;;;0.60;0.20;;;13.00;99.90;;;;;;4975107;28;20520;-72
2023/10/04 07:43:07;;;;;;;0.90;0.70;;;13.00;99.90;;;;;;4967374;28;20582;-73
2023/10/04 07:45:35;;;;;;;2.70;1.00;;;13.00;99.90;;;;;;4974181;28;20830;-73
2023/10/04 07:48:04;;;;;;;0.70;0.30;;;;;;;;;;4973316;28;20461;-74
2023/10/04 07:50:32;;;;;;;0.70;0.20;;;13.00;99.90;;;;;;4972684;28;20478;-73
2023/10/04 07:53:04;;;;;;;0.60;0.10;;;13.10;99.90;;;;;;4965943;28;20898;-72
2023/10/04 07:55:36;;;;;;;3.37;1.93;;;13.20;99.90;;;;;;4972886;28;20559;-73
2023/10/04 07:58:05;;;;;;;0.60;0.20;;;13.20;99.90;;;;;;4969346;28;20449;-73
2023/10/04 08:00:35;;;;;;;0.60;0.10;;;13.30;99.90;;;;;;4969779;28;20498;-71
2023/10/04 08:03:05;;;;;;;0.60;0.20;;;13.40;99.90;;;;;;4973156;28;20831;-72
2023/10/04 08:05:35;;;;;;;0.70;0.40;;;13.40;99.90;;;;;;4974497;28;20592;-73
2023/10/04 08:08:05;;;;;;;0.60;0.20;;;13.30;99.90;;;;;;4970989;28;20441;-72
2023/10/04 08:10:39;;;;;;;1.20;0.93;;;13.20;99.90;;;;;;4971901;28;20488;-72
2023/10/04 08:13:10;;;;;;;0.67;0.50;;;13.30;99.90;;;;;;4970602;28;20507;-70
2023/10/04 08:15:38;;;;;;;1.13;1.03;;;13.20;99.90;;;;;;4963811;28;20587;-70
2023/10/04 08:18:07;;;;;;;1.37;1.27;;;13.20;99.90;;;;;;4971436;28;20503;-70
2023/10/04 08:20:36;;;;;;;2.40;1.13;;;13.20;99.90;;;;;;4974489;28;20475;-69
2023/10/04 08:23:05;;;;;;;1.67;0.73;;;13.20;99.90;;;;;;4963803;28;20839;-69
2023/10/04 08:25:34;;;;;;;0.73;0.20;;;13.30;99.90;;;;;;4971593;28;20524;-70
2023/10/04 08:28:06;;;;;;;0.60;0.20;;;13.30;99.90;;;;;;4972082;28;20522;-72
2023/10/04 08:30:38;;;;;;;0.70;0.40;;;13.40;99.90;;;;;;4971688;28;20568;-70
2023/10/04 08:33:06;;;;;;;1.73;1.17;;;13.40;99.90;;;;;;4970482;28;20451;-70
2023/10/04 08:35:36;;;;;;;0.60;0.10;;;13.30;99.90;;;;;;4969272;28;20461;-70
2023/10/04 08:38:05;;;;;;;1.13;1.03;;;13.40;99.90;;;;;;4967474;28;21010;-71
2023/10/04 08:40:36;;;;;;;0.80;0.53;;;13.60;99.90;;;;;;4973237;28;20470;-70
2023/10/04 08:43:07;;;;;;;1.37;0.83;;;13.60;99.90;;;;;;4962525;28;20457;-69
2023/10/04 08:45:35;;;;;;;0.97;0.77;;;13.60;99.90;;;;;;4965645;28;21056;-71
2023/10/04 08:48:05;;;;;;;0.80;0.67;;;13.70;99.90;;;;;;4964080;28;20445;-71
2023/10/04 08:50:40;;;;;;;0.90;0.30;;;13.80;99.90;;;;;;4969489;28;21080;-69
2023/10/04 08:53:15;;;;;;;0.87;0.30;;;13.70;99.90;;;;;;4970852;28;20450;-70
2023/10/04 08:55:48;;;;;;;1.53;1.43;;;13.80;99.90;;;;;;4970402;28;20504;-70
2023/10/04 08:58:17;;;;;;;3.70;1.70;;;13.90;99.90;;;;;;4962425;28;20502;-70
2023/10/04 09:00:48;;;;;;;0.60;0.10;;;13.90;99.90;;;;;;4967858;28;20436;-71
2023/10/04 09:03:16;;;;;;;0.70;0.30;;;14.00;99.90;;;;;;4973521;28;20816;-71
2023/10/04 09:05:46;;;;;;;1.93;1.00;;;14.20;99.90;;;;;;4968176;28;20556;-70
2023/10/04 09:08:16;;;;;;;0.60;0.20;;;14.30;99.90;;;;;;4974464;28;20449;-70
2023/10/04 09:10:45;;;;;;;1.17;0.80;;;14.20;99.90;;;;;;4974659;28;20485;-69
2023/10/04 09:13:13;;;;;;;0.90;0.30;;;14.30;99.90;;;;;;4981092;28;20647;-69
2023/10/04 09:15:43;;;;;;;0.60;0.30;;;14.30;99.90;;;;;;4973253;28;20579;-70
2023/10/04 09:18:12;;;;;;;2.63;1.13;;;14.30;99.90;;;;;;4974092;28;20450;-70
2023/10/04 09:20:40;;;;;;;0.80;0.67;;;14.30;99.90;;;;;;4974189;28;20841;-70
2023/10/04 09:23:22;;;;;;;2.20;1.53;;;14.30;99.90;;;;;;4966553;28;20455;-70
2023/10/04 09:25:54;;;;;;;1.00;0.47;;;14.40;99.90;;;;;;4974060;28;20488;-70
2023/10/04 09:28:38;;;;;;;1.10;0.50;;;14.60;99.90;;;;;;4972190;28;20458;-69
2023/10/04 09:31:13;;;;;;;0.60;0.10;;;14.60;99.90;;;;;;4974208;28;20485;-71
2023/10/04 09:33:43;;;;;;;0.60;0.20;;;14.80;99.90;;;;;;4974477;28;20947;-70
2023/10/04 09:36:17;;;;;;;0.80;0.20;;;14.80;99.90;;;;;;4969995;28;20458;-69
2023/10/04 09:39:07;;;;;;;0.60;0.17;;;15.00;99.90;;;;;;4973839;28;20976;-71
2023/10/04 09:41:41;;;;;;;1.13;0.63;;;15.10;99.90;;;;;;4973971;28;20976;-70
2023/10/04 09:44:25;;;;;;;0.60;0.10;;;15.10;99.90;;;;;;4965418;28;20550;-70
2023/10/04 09:46:59;;;;;;;0.60;0.20;;;15.10;99.90;;;;;;4968168;28;20462;-71
2023/10/04 09:49:32;;;;;;;1.23;0.43;;;15.10;99.90;;;;;;4973451;28;20460;-68
2023/10/04 09:52:18;;;;;;;0.60;0.10;;;15.00;99.90;;;;;;4969537;28;20461;-70
2023/10/04 09:54:54;;;;;;;0.80;0.40;;;15.10;99.90;;;;;;4971178;28;21046;-69
2023/10/04 09:57:30;;;;;;;0.60;0.20;;;15.20;99.90;;;;;;4972702;28;20455;-70
2023/10/04 10:00:07;;;;;;;0.60;0.10;;;15.30;99.90;;;;;;4973723;28;20892;-71
2023/10/04 10:02:49;;;;;;;0.60;0.17;;;15.40;99.90;;;;;;4973238;28;20860;-70
2023/10/04 10:05:28;;;;;;;0.80;0.40;;;15.50;99.90;;;;;;4968989;28;20528;-70
2023/10/04 10:08:08;;;;;;;0.80;0.20;;;15.50;99.90;;;;;;4973615;28;20470;-69
2023/10/04 10:10:44;;;;;;;0.60;0.10;;;15.60;99.90;;;;;;4968377;28;21066;-69
2023/10/04 10:13:17;;;;;;;0.60;0.10;;;15.70;99.90;;;;;;4969302;28;20458;-70
2023/10/04 10:15:48;;;;;;;0.60;0.10;;;15.90;99.90;;;;;;4973672;28;20532;-70
2023/10/04 10:18:19;;;;;;;0.60;0.10;;;15.90;99.90;;;;;;4974081;28;20611;-69
2023/10/04 10:20:48;;;;;;;0.60;0.10;;;16.10;99.90;;;;;;4973881;28;20449;-70
2023/10/04 10:23:24;;;;;;;0.60;0.10;;;16.20;99.90;;;;;;4974378;28;20438;-70
2023/10/04 10:26:19;;;;;;;1.30;0.93;;;16.30;99.90;;;;;;4973268;28;20843;-70
2023/10/04 10:29:04;;;;;;;10.57;3.13;;;16.30;99.90;;;;;;4974334;28;20449;-69
2023/10/04 10:31:37;;;;;;;1.10;0.40;;;16.40;99.90;;;;;;4973990;28;20492;-69
2023/10/04 10:34:07;;;;;;;4.40;0.57;;;16.40;99.90;;;;;;4973969;28;20450;-69
2023/10/04 10:36:46;;;;;;;0.60;0.20;;;16.40;99.90;;;;;;4974221;28;20615;-70
2023/10/04 10:39:24;;;;;;;1.27;0.30;;;16.40;99.90;;;;;;4969216;28;20434;-70
2023/10/04 10:42:01;;;;;;;1.73;0.93;;;16.40;99.90;;;;;;4974358;28;20526;-70
2023/10/04 10:44:33;;;;;;;2.20;0.60;;;16.40;99.90;;;;;;4975124;28;20461;-69
2023/10/04 10:47:07;;;;;;;2.50;0.40;;;16.50;99.70;;;;;;4972639;28;20465;-70
2023/10/04 10:49:52;;;;;;;0.60;0.10;;;16.20;99.90;;;;;;4971439;28;20462;-71
2023/10/04 10:52:28;;;;;;;0.60;0.10;;;16.50;99.90;;;;;;4967041;28;20493;-70
2023/10/04 10:54:58;;;;;;;0.83;0.40;;;16.70;99.90;;;;;;4968209;28;21046;-71
2023/10/04 10:57:28;;;;;;;0.60;0.30;;;16.80;99.90;;;;;;4974458;28;20476;-70
2023/10/04 10:59:57;;;;;;;0.60;0.10;;;16.90;99.90;;;;;;4974901;28;20919;-71
2023/10/04 11:02:27;;;;;;;0.60;0.10;;;16.90;99.90;;;;;;4972971;28;21096;-71
2023/10/04 11:04:57;;;;;;;0.60;0.10;;;17.00;99.90;;;;;;4973122;28;20469;-68
2023/10/04 11:07:26;;;;;;;0.83;0.20;;;17.00;99.90;;;;;;4973314;28;20445;-69
2023/10/04 11:09:56;;;;;;;1.63;0.60;;;17.10;99.90;;;;;;4973430;28;20454;-69
2023/10/04 11:12:24;;;;;;;0.60;0.20;;;17.10;99.90;;;;;;4973405;28;20442;-70
2023/10/04 11:14:53;;;;;;;1.03;0.30;;;17.10;95.60;;;;;;4972668;28;20490;-71
2023/10/04 11:17:21;;;;;;;0.60;0.20;;;17.10;99.90;;;;;;4970934;28;20545;-71
2023/10/04 11:19:51;;;;;;;0.80;0.40;;;17.10;99.90;;;;;;4972521;28;20453;-71
2023/10/04 11:22:20;;;;;;;0.80;0.30;;;17.10;99.90;;;;;;4971130;28;20442;-70
2023/10/04 11:24:50;;;;;;;0.60;0.10;;;17.00;89.90;;;;;;4970250;28;20488;-70
2023/10/04 11:27:21;;;;;;;0.60;0.10;;;17.00;94.40;;;;;;4971024;28;20449;-69
2023/10/04 11:29:52;;;;;;;1.47;1.13;;;17.10;95.00;;;;;;4973409;28;20956;-70
2023/10/04 11:32:21;;;;;;;0.60;0.13;;;17.20;95.40;;;;;;4971966;28;20543;-70
2023/10/04 11:34:50;;;;;;;0.60;0.20;;;17.30;92.70;;;;;;4968890;28;20876;-70
2023/10/04 11:37:19;;;;;;;2.43;0.50;;;17.30;97.30;;;;;;4968804;28;20485;-69
2023/10/04 11:39:48;;;;;;;0.60;0.10;;;17.40;91.80;;;;;;4969504;28;20540;-70
2023/10/04 11:42:20;;;;;;;0.80;0.57;;;17.50;96.70;;;;;;4973320;28;20496;-69
2023/10/04 11:44:49;;;;;;;0.70;0.20;;;17.60;84.70;;;;;;4966726;28;20508;-69
2023/10/04 11:47:27;;;;;;;0.80;0.20;;;17.40;92.00;;;;;;4973136;28;20525;-70
2023/10/04 11:49:58;;;;;;;0.70;0.30;;;17.20;91.60;;;;;;4972670;28;20450;-70
2023/10/04 11:52:32;;;;;;;1.10;0.43;;;17.30;92.40;;;;;;4972586;28;20571;-71
2023/10/04 11:55:01;;;;;;;0.60;0.20;;;17.40;82.40;;;;;;4972641;28;20462;-69
2023/10/04 11:57:31;;;;;;;0.60;0.10;;;17.40;91.70;;;;;;4970752;28;20464;-73
2023/10/04 12:00:17;;;;;;;0.60;0.10;;;17.60;93.00;;;;;;4973928;28;20457;-70
2023/10/04 12:02:44;;;;;;;0.60;0.10;;;17.70;83.90;;;;;;4973229;28;20454;-71
2023/10/04 12:05:13;;;;;;;0.60;0.10;;;17.80;74.80;;;;;;4973129;28;21082;-69
2023/10/04 12:07:42;;;;;;;0.60;0.10;;;;;;;;;;4973098;28;20822;-70
2023/10/04 12:10:13;;;;;;;0.60;0.10;;;17.80;72.00;;;;;;4969505;28;20898;-70
2023/10/04 12:12:42;;;;;;;0.60;0.10;;;17.80;85.80;;;;;;4966270;28;20493;-70
2023/10/04 12:15:11;;;;;;;0.60;0.10;;;17.70;70.90;;;;;;4972000;28;20493;-70
2023/10/04 12:17:39;;;;;;;1.53;0.60;;;17.80;73.30;;;;;;4974154;28;20457;-72
2023/10/04 12:20:11;;;;;;;0.60;0.10;;;17.80;86.80;;;;;;4972691;28;20449;-71
2023/10/04 12:22:40;;;;;;;0.93;0.50;;;18.00;84.80;;;;;;4973343;28;20509;-69
2023/10/04 12:25:10;;;;;;;0.60;0.10;;;18.10;66.00;;;;;;4971876;28;20548;-69
2023/10/04 12:27:38;;;;;;;1.63;0.63;;;18.20;78.40;;;;;;4973040;28;20446;-68
2023/10/04 12:30:08;;;;;;;0.60;0.10;;;18.10;70.60;;;;;;4973071;28;20453;-70
2023/10/04 12:32:36;;;;;;;0.60;0.10;;;18.10;73.20;;;;;;4971916;28;20568;-69
2023/10/04 12:35:06;;;;;;;0.70;0.53;;;18.20;58.40;;;;;;4968297;28;20470;-70
2023/10/04 12:37:34;;;;;;;0.60;0.10;;;18.20;72.70;;;;;;4975986;28;20788;-70
2023/10/04 12:40:04;;;;;;;0.60;0.10;;;18.20;72.60;;;;;;4977624;28;20445;-70
2023/10/04 12:42:33;;;;;;;0.60;0.20;;;18.30;73.90;;;;;;4986049;28;20438;-70
2023/10/04 12:45:01;;;;;;;0.60;0.10;;;18.50;61.10;;;;;;5109846;23;20500;-72
2023/10/04 12:47:29;;;;;;;0.60;0.20;;;18.50;72.70;;;;;;4993918;28;20584;-74
2023/10/04 12:49:57;;;;;;;0.60;0.10;;;18.60;82.80;;;;;;4989004;28;20445;-74
2023/10/04 12:52:25;;;;;;;0.60;0.10;;;18.50;63.70;;;;;;4993632;28;20582;-74
2023/10/04 12:54:53;;;;;;;0.90;0.60;;;18.60;50.30;;;;;;4988190;28;20512;-73
2023/10/04 12:57:22;;;;;;;0.60;0.10;;;;;;;;;;4993845;28;20533;-73
2023/10/04 12:59:52;;;;;;;0.60;0.20;;;18.60;48.80;;;;;;4994052;28;20449;-75
2023/10/04 13:02:22;;;;;;;0.60;0.30;;;18.50;59.80;;;;;;4987176;28;20433;-74
2023/10/04 13:04:51;;;;;;;0.60;0.20;;;18.70;48.90;;;;;;4993847;28;21065;-75
2023/10/04 13:07:19;;;;;;;0.77;0.40;;;18.70;57.90;;;;;;4988483;28;20484;-74
2023/10/04 13:09:48;;;;;;;0.60;0.10;;;18.50;48.50;;;;;;4994458;28;21245;-73
2023/10/04 13:12:26;;;;;;;1.67;1.57;;;18.50;50.70;;;;;;4987581;28;20516;-76
2023/10/04 13:14:55;;;;;;;0.60;0.10;;;18.50;42.00;;;;;;4995533;28;20476;-76
2023/10/04 13:17:24;;;;;;;1.17;0.30;;;18.50;52.40;;;;;;4994678;28;20483;-76
2023/10/04 13:19:52;;;;;;;3.13;1.00;;;;;;;;;;4999293;28;20452;-74
2023/10/04 13:22:22;;;;;;;0.80;0.53;;;18.60;39.50;;;;;;4992497;28;20444;-75
2023/10/04 13:24:50;;;;;;;0.70;0.23;;;18.60;40.60;;;;;;4996684;28;20515;-74
2023/10/04 13:27:21;;;;;;;0.60;0.10;;;18.60;52.60;;;;;;4995059;28;20447;-72
2023/10/04 13:29:49;;;;;;;0.60;0.20;;;18.60;52.40;;;;;;4993313;28;20464;-72
2023/10/04 13:32:19;;;;;;;1.30;0.83;;;18.40;47.30;;;;;;4994250;28;20479;-74
2023/10/04 13:34:47;;;;;;;0.73;0.40;;;18.40;41.80;;;;;;4992701;28;20953;-73
2023/10/04 13:37:14;;;;;;;2.40;0.50;;;18.50;52.80;;;;;;4989769;28;20549;-73
2023/10/04 13:39:42;;;;;;;0.60;0.20;;;18.60;53.30;;;;;;4992957;28;20468;-72
2023/10/04 13:42:12;;;;;;;0.80;0.33;;;18.60;52.00;;;;;;5002002;28;20472;-73
2023/10/04 13:44:57;;;;;;;0.60;0.20;;;18.60;36.50;;;;;;4994039;28;20531;-75
2023/10/04 13:47:26;;;;;;;0.60;0.30;;;18.50;46.20;;;;;;4993520;28;20456;-74
2023/10/04 13:49:54;;;;;;;0.60;0.10;;;18.60;47.70;;;;;;4984818;28;20445;-74
2023/10/04 13:52:22;;;;;;;0.60;0.10;;;18.70;49.40;;;;;;4987932;28;21014;-75
2023/10/04 13:54:51;;;;;;;0.83;0.50;;;18.80;39.90;;;;;;4995705;28;21006;-75
2023/10/04 13:57:24;;;;;;;0.60;0.10;;;18.80;46.80;;;;;;4986878;28;20504;-73
2023/10/04 13:59:53;;;;;;;0.80;0.30;;;18.80;49.30;;;;;;4994384;28;21141;-75
2023/10/04 14:02:21;;;;;;;0.60;0.20;;;18.80;48.40;;;;;;4993080;28;20437;-74
2023/10/04 14:04:51;;;;;;;2.00;1.03;;;18.80;35.00;;;;;;4991367;28;20491;-74
2023/10/04 14:07:20;;;;;;;2.50;0.70;;;18.80;45.70;;;;;;4993044;28;20449;-74
2023/10/04 14:09:48;;;;;;;1.17;0.93;;;18.50;41.10;;;;;;4992697;28;20894;-73
2023/10/04 14:12:20;;;;;;;2.40;1.80;;;18.60;34.80;;;;;;4992727;28;20488;-74
2023/10/04 14:14:51;;;;;;;4.30;0.70;;;18.60;29.60;;;;;;4995023;28;20472;-73
2023/10/04 14:17:20;;;;;;;1.00;0.30;;;18.60;37.90;;;;;;4994148;28;20491;-74
2023/10/04 14:19:49;;;;;;;1.57;1.37;;;18.60;26.00;;;;;;4993715;28;20445;-74
2023/10/04 14:22:18;;;;;;;0.70;0.60;;;18.50;33.60;;;;;;4992946;28;20449;-74
2023/10/04 14:24:47;;;;;;;1.10;0.87;;;18.50;24.00;;;;;;4992740;28;20505;-75
2023/10/04 14:27:16;;;;;;;1.33;0.40;;;18.50;45.20;;;;;;4992651;28;20658;-75
2023/10/04 14:29:43;;;;;;;0.70;0.30;;;18.50;33.40;;;;;;4991291;28;20560;-74
2023/10/04 14:32:11;;;;;;;2.03;1.50;;;18.40;29.40;;;;;;4993597;28;20487;-72
2023/10/04 14:34:39;;;;;;;0.60;0.20;;;18.50;20.60;;;;;;4999952;28;20571;-74
2023/10/04 14:37:07;;;;;;;0.83;0.83;;;18.50;28.60;;;;;;4994728;28;20449;-74
2023/10/04 14:39:39;;;;;;;0.60;0.10;;;18.50;27.60;;;;;;4993372;28;20449;-72
2023/10/04 14:42:08;;;;;;;0.67;0.27;;;18.60;27.40;;;;;;4994013;28;20437;-72
2023/10/04 14:44:36;;;;;;;0.80;0.40;;;19.70;16.70;;;;;;4992946;28;20469;-75
2023/10/04 14:47:04;;;;;;;0.60;0.10;;;18.60;15.60;;;;;;4995804;28;20433;-73
2023/10/04 14:49:32;;;;;;;1.10;1.00;;;18.60;22.40;;;;;;4987248;28;20552;-72
2023/10/04 14:52:00;;;;;;;2.10;0.53;;;18.50;17.20;;;;;;4989758;28;20453;-74
2023/10/04 14:54:29;;;;;;;0.60;0.10;;;18.60;7.40;;;;;;4989202;28;20476;-74
2023/10/04 14:56:58;;;;;;;0.80;0.60;;;18.50;15.00;;;;;;4989926;28;20449;-73
2023/10/04 14:59:26;;;;;;;0.80;0.57;;;18.60;15.60;;;;;;4989117;28;20530;-73
2023/10/04 15:01:54;;;;;;;0.60;0.10;;;18.70;5.90;;;;;;4990733;28;20563;-73
2023/10/04 15:04:22;;;;;;;0.60;0.10;;;18.70;4.90;;;;;;4982211;28;20475;-74
2023/10/04 15:06:50;;;;;;;0.60;0.10;;;18.80;12.80;;;;;;4991486;28;20824;-73
2023/10/04 15:09:19;;;;;;;0.60;0.20;;;18.70;6.30;;;;;;4991736;28;20480;-74
2023/10/04 15:11:46;;;;;;;4.30;1.13;;;18.70;12.00;;;;;;4992067;28;20551;-74
2023/10/04 15:14:16;;;;;;;1.93;1.47;;;18.60;3.80;;;;;;4996494;28;20559;-74
2023/10/04 15:16:44;;;;;;;1.10;0.60;;;18.50;11.10;;;;;;4991590;28;20496;-73
2023/10/04 15:19:12;;;;;;;0.60;0.10;;;18.50;4.70;;;;;;5002143;28;20453;-73
2023/10/04 15:21:40;;;;;;;2.80;2.10;;;18.50;15.30;;;;;;4995507;28;20464;-74
2023/10/04 15:24:14;;;;;;;0.60;0.20;;;18.30;5.80;;;;;;4988990;28;20479;-75
2023/10/04 15:26:44;;;;;;;2.50;0.77;;;18.30;14.70;;;;;;4989237;28;20511;-76
2023/10/04 15:29:12;;;;;;;1.07;0.33;;;18.40;14.60;;;;;;4998811;28;20836;-73
2023/10/04 15:31:44;;;;;;;0.60;0.20;;;18.30;5.30;;;;;;5007121;28;20452;-74
2023/10/04 15:34:13;;;;;;;0.60;0.20;;;18.40;6.80;;;;;;4991907;28;21062;-77
2023/10/04 15:36:41;;;;;;;0.60;0.10;;;18.40;7.20;;;;;;5000906;28;20535;-74
2023/10/04 15:39:18;;;;;;;0.93;0.30;;;18.30;14.30;;;;;;5000783;28;20476;-73
2023/10/04 15:41:46;;;;;;;0.60;0.10;;;18.30;14.10;;;;;;4997328;28;20531;-73
2023/10/04 15:44:14;;;;;;;2.00;1.30;;;18.20;8.60;;;;;;4993704;28;20483;-74
2023/10/04 15:46:45;;;;;;;1.30;0.70;;;18.10;8.00;;;;;;4993646;28;20490;-74
2023/10/04 15:49:14;;;;;;;0.60;0.30;;;18.30;16.90;;;;;;4995060;28;20468;-75
2023/10/04 15:51:44;;;;;;;0.90;0.30;;;18.30;9.40;;;;;;5003512;28;20480;-75
2023/10/04 15:54:12;;;;;;;0.80;0.20;;;18.20;7.80;;;;;;5002074;28;20572;-74
2023/10/04 15:56:41;;;;;;;0.60;0.20;;;18.20;15.40;;;;;;5002284;28;20456;-75
2023/10/04 15:59:09;;;;;;;0.60;0.10;;;18.20;8.40;;;;;;5002599;28;20475;-74
2023/10/04 16:01:37;;;;;;;1.20;1.03;;;18.20;8.10;;;;;;4988523;28;20469;-76
2023/10/04 16:04:07;;;;;;;1.30;1.17;;;18.00;7.80;;;;;;4991997;28;20472;-74
2023/10/04 16:06:37;;;;;;;1.90;0.30;;;17.90;7.00;;;;;;4987909;28;20451;-75
2023/10/04 16:09:06;;;;;;;3.47;2.93;;;;;;;;;;5000285;28;20451;-76
2023/10/04 16:11:35;;;;;;;0.60;0.10;;;17.80;6.00;;;;;;4995763;28;20438;-74
2023/10/04 16:14:03;;;;;;;0.60;0.10;;;17.90;6.60;;;;;;4993684;28;20484;-73
2023/10/04 16:16:32;;;;;;;0.60;0.10;;;17.90;7.80;;;;;;4987818;28;20506;-74
2023/10/04 16:19:00;;;;;;;0.60;0.30;;;;;;;;;;5000143;28;20566;-73
2023/10/04 16:21:31;;;;;;;0.60;0.10;;;17.90;8.40;;;;;;4992598;28;20445;-75
2023/10/04 16:23:59;;;;;;;2.30;1.77;;;17.80;8.60;;;;;;4985035;28;20563;-75
2023/10/04 16:26:27;;;;;;;0.60;0.20;;;17.80;15.80;;;;;;4988204;28;20436;-74
2023/10/04 16:28:55;;;;;;;1.27;0.70;;;17.70;9.10;;;;;;4987612;28;20473;-75
2023/10/04 16:31:24;;;;;;;0.60;0.10;;;17.70;16.60;;;;;;5005435;28;20440;-75
2023/10/04 16:33:52;;;;;;;1.10;0.87;;;17.70;9.80;;;;;;5005543;28;20475;-75
2023/10/04 16:36:20;;;;;;;0.60;0.10;;;17.70;17.50;;;;;;5007818;28;20480;-75
2023/10/04 16:38:49;;;;;;;0.80;0.40;;;;;;;;;;4998783;28;20444;-77
2023/10/04 16:41:18;;;;;;;1.90;0.23;;;;;;;;;;4997295;28;20464;-76
2023/10/04 16:43:46;;;;;;;0.70;0.57;;;17.50;8.20;;;;;;4997730;28;20445;-78
2023/10/04 16:46:14;;;;;;;0.60;0.13;;;17.50;16.60;;;;;;4994052;28;20460;-77
2023/10/04 16:48:42;;;;;;;0.70;0.50;;;17.50;17.40;;;;;;4997856;28;20456;-75
2023/10/04 16:51:10;;;;;;;0.60;0.10;;;17.60;10.40;;;;;;4993609;28;20543;-73
2023/10/04 16:53:38;;;;;;;0.60;0.10;;;17.50;11.20;;;;;;4993852;28;20579;-75
2023/10/04 16:56:11;;;;;;;0.60;0.10;;;17.50;19.50;;;;;;4993236;28;20532;-75
2023/10/04 16:58:39;;;;;;;0.60;0.20;;;17.50;10.80;;;;;;4993655;28;20445;-75
2023/10/04 17:01:07;;;;;;;0.60;0.10;;;17.40;10.90;;;;;;4986877;28;20575;-74
2023/10/04 17:03:35;;;;;;;1.03;0.83;;;;;;;;;;4989565;28;20464;-75
2023/10/04 17:06:04;;;;;;;0.60;0.10;;;17.40;12.60;;;;;;4993663;28;20540;-75
2023/10/04 17:08:32;;;;;;;0.60;0.30;;;17.40;21.40;;;;;;4993978;28;20464;-74